Flag for Italy

Past Weather in 38°28'00"N, 14°56'59"E, Italy — Yesterday and Last 2 Weeks

Currently: 52 °F. Sunny. (Weather station: Reggio Calabria, Italy). See more current weather

Past Weather in 38°28'00"N, 14°56'59"E — Graph

°F

38°28'00"N, 14°56'59"E Temperature Yesterday

Maximum temperature yesterday: 63 °F (at 3:20 pm)
Minimum temperature yesterday: 52 °F (at 5:20 am)
Average temperature yesterday: 57 °F

High & Low Weather Summary for the Past Weeks

 TemperatureHumidityPressure
High68 °F (Feb 24, 1:20 pm)100% (Feb 25, 10:50 am)30.45 "Hg (Feb 25, 10:50 am)
Low45 °F (Feb 16, 5:50 am)29% (Feb 26, 5:20 pm)29.65 "Hg (Feb 25, 1:50 pm)
Average58 °F71%30.01 "Hg
* Reported Feb 15 7:20 am — Mar 1 7:20 am, 38°28'00"N, 14°56'59"E. Weather by CustomWeather, © 2024

Note: Actual official high and low records may vary slightly from our data, if they occured in-between our weather recording intervals... More about our weather records

38°28'00"N, 14°56'59"E Weather History for the Previous 24 Hours

Scroll right to see more
 ConditionsComfort  
Time TempWeatherWind HumidityBarometerVisibility
7:20 am
Fri, Mar 1
50 °FSunny.2 mph76%29.74 "HgN/A
6:50 am50 °FPassing clouds.3 mph76%29.74 "HgN/A
6:20 am46 °FPassing clouds.5 mph87%29.74 "HgN/A
5:50 am50 °FClear.3 mph76%29.74 "HgN/A
5:20 am50 °FPassing clouds.5 mph82%29.74 "HgN/A
4:50 am50 °FPassing clouds.6 mph82%29.74 "HgN/A
4:20 am48 °FPassing clouds.6 mph87%29.74 "HgN/A
3:50 am48 °FPassing clouds.3 mph87%29.74 "HgN/A
3:20 am48 °FPartly cloudy.5 mph87%29.74 "HgN/A
2:50 am50 °FPassing clouds.5 mph82%29.74 "HgN/A
2:20 am48 °FPassing clouds.5 mph87%29.74 "HgN/A
1:50 am48 °FCool.2 mph87%29.74 "HgN/A
1:20 am48 °FCool.3 mph87%29.74 "HgN/A
12:50 am48 °FCool.2 mph94%29.74 "HgN/A
12:20 am50 °FCool.3 mph88%29.74 "HgN/A
11:50 pm
Thu, Feb 29
52 °FPassing clouds.2 mph82%29.74 "HgN/A
11:20 pm52 °FPassing clouds.2 mph88%29.74 "HgN/A
10:50 pm52 °FOvercast.2 mph82%29.77 "HgN/A
10:20 pm52 °FPassing clouds.5 mph82%29.77 "HgN/A
9:50 pm52 °FLight rain. Overcast.2 mph88%29.77 "HgN/A
9:20 pm54 °FLight rain. Overcast.7 mph77%29.77 "HgN/A
8:50 pm54 °FLight rain. Overcast.8 mph77%29.77 "HgN/A
8:20 pm54 °FPassing clouds.9 mph72%29.77 "HgN/A
7:50 pm55 °FThundershowers. Passing clouds.21 mph72%29.74 "HgN/A
7:20 pm55 °FPassing clouds.9 mph82%29.71 "HgN/A
6:50 pm55 °FPassing clouds.7 mph77%29.71 "HgN/A
6:20 pm55 °FPassing clouds.9 mph67%29.71 "HgN/A
5:50 pm55 °FPassing clouds.8 mph72%29.71 "HgN/A
5:20 pm57 °FScattered clouds.10 mph82%29.74 "HgN/A
4:50 pm59 °FPassing clouds.7 mph77%29.71 "HgN/A
4:20 pm63 °FScattered clouds.6 mph59%29.71 "HgN/A
3:20 pm63 °FPartly sunny.3 mph56%29.74 "HgN/A
2:50 pm61 °FPartly sunny.7 mph59%29.74 "HgN/A
2:20 pm61 °FPartly sunny.6 mph68%29.74 "HgN/A
1:50 pm61 °FPartly sunny.9 mph72%29.74 "HgN/A
1:20 pm61 °FScattered clouds.13 mph68%29.74 "HgN/A
12:50 pm59 °FScattered clouds.14 mph72%29.74 "HgN/A
12:20 pm61 °FPartly sunny.13 mph68%29.74 "HgN/A
11:50 am59 °FPartly sunny.14 mph68%29.77 "HgN/A
11:20 am59 °FPassing clouds.14 mph72%29.74 "HgN/A
10:50 am59 °FCool.15 mph68%29.77 "HgN/A
10:20 am61 °FCool.13 mph68%29.77 "HgN/A
9:50 am61 °FCool.14 mph68%29.77 "HgN/A
8:50 am59 °FCool.12 mph72%29.74 "HgN/A
8:20 am57 °FCool.9 mph82%29.74 "HgN/A
Weather by CustomWeather, © 2024

See weather overview